Station: Scoresby  

  Atmospheric Gas Attenuation - ITU Rec 676-11   ----------------- dB/100km -----------------
Date Time Temp RH % AH g/m3 Dew Point Wind Direction Speed kph Gust kph Barometer mB Rainfall Since 9am 24GHz 47GHz 76GHz 122GHz 134GHz 241GHz
08/05 12:30 13 88 9.98 11.1 26 43 1013.1 0.4 22.6 28.4 45.9 120.8 118.3 408.0
08/05 12:20 15.3 77 10.06 11.3 28 35 1013.1 0.2 22.6 27.8 44.9 118.2 115.9 399.9
08/05 12:10 14.4 80 9.89 11 17 24 1013.1 0.2 22.3 27.8 44.8 117.7 114.9 396.4
08/05 12:00 13.9 82 9.83 10.9 17 30 1013.1 0.2 22.2 27.9 44.8 117.8 114.9 396.1
08/05 11:50 14.3 81 9.95 11.2 17 22 1013.1 0.2 22.5 28.0 45.1 118.5 115.9 399.8
08/05 11:40 14.1 83 10.07 11.2 19 22 1013.1 0.2 22.7 28.2 45.7 120.2 117.9 406.6
08/05 11:30 13.8 87 10.37 11.7 15 28 1013.1 0.2 23.4 28.8 47.1 124.0 122.5 422.9
08/05 11:20 14.1 84 10.19 11.4 17 19 1013.1 0.2 23.0 28.4 46.2 121.5 119.5 412.4
08/05 11:10 14.1 91 11.04 12.6 9 15 1013.1 0.2 24.8 29.9 49.8 131.3 131.5 454.4
08/05 11:00 13 93 10.55 11.9 13 22 1013.1 0.2 23.8 29.4 48.4 127.4 126.4 436.2
08/05 10:50 12.8 94 10.53 11.8 19 24 1013.1 0.2 23.8 29.5 48.4 127.5 126.4 436.4
08/05 10:40 13.3 92 10.63 12 24 33 1013.1 0.2 24.0 29.5 48.6 127.8 127.0 438.5
08/05 10:30 13.9 90 10.79 12.3 11 24 1013.1 0.2 24.3 29.5 48.9 128.7 128.3 443.1
08/05 10:20 13 91 10.32 11.5 15 20 1013.1 0.2 23.3 29.0 47.4 124.7 123.1 424.8
08/05 10:10 13.1 92 10.5 11.8 15 19 1013.1 0.2 23.7 29.3 48.1 126.7 125.5 433.2
08/05 10:00 13.9 91 10.91 12.5 13 20 1013.1 0 24.5 29.7 49.4 130.1 130.0 449.1
08/05 09:50 12.9 92 10.37 11.6 15 19 1013.1 0 23.4 29.1 47.7 125.5 124.0 427.8
08/05 09:40 12.9 93 10.48 11.8 15 19 1013.1 0 23.7 29.3 48.2 126.8 125.6 433.3
08/05 09:30 12.8 95 10.64 12 11 17 1013.1 0 24.0 29.7 48.9 128.8 128.0 441.9
08/05 09:20 12.6 95 10.51 11.8 13 17 1013.1 0 23.8 29.5 48.5 127.6 126.5 436.5
08/05 09:10 12.5 95 10.45 11.8 13 17 1013.1 0 23.6 29.4 48.3 127.1 125.8 434.1
08/05 09:00 12.5 96 10.56 11.9 11 22 1013.1 0 23.9 29.6 48.8 128.3 127.4 439.6
08/05 08:50 12.6 95 10.51 11.8 6 7 1013.1 8 23.8 29.5 48.5 127.6 126.5 436.5
08/05 08:40 12.4 95 10.38 11.6 17 20 1013.1 8 23.5 29.3 48.0 126.4 124.9 431.1
08/05 08:30 12.4 94 10.27 11.5 9 20 1013.1 8 23.3 29.1 47.6 125.1 123.4 425.6
08/05 08:20 12.3 94 10.21 11.3 13 17 1013.1 8 23.1 29.1 47.4 124.6 122.7 423.2
08/05 08:10 12.3 95 10.32 11.5 15 20 1013.1 8 23.4 29.3 47.8 125.9 124.2 428.7
08/05 08:00 12.3 95 10.32 11.5 15 22 1013.1 8 23.4 29.3 47.8 125.9 124.2 428.7
08/05 07:50 12.1 95 10.19 11.4 11 19 1013.1 8 23.1 29.1 47.4 124.7 122.7 423.3
08/05 07:40 12.1 97 10.4 11.6 9 11 1013.1 8 23.5 29.5 48.3 127.1 125.7 433.8
08/05 07:30 12.1 97 10.4 11.6 9 15 1013.1 7.8 23.5 29.5 48.3 127.1 125.7 433.8
08/05 07:20 12.1 95 10.19 11.4 13 15 1013.1 7.8 23.1 29.1 47.4 124.7 122.7 423.3
08/05 07:10 12.1 95 10.19 11.3 11 17 1013.1 7.8 23.1 29.1 47.4 124.7 122.7 423.3
08/05 07:00 12 96 10.23 11.4 13 24 1013.1 7.6 23.2 29.2 47.6 125.3 123.4 425.8
08/05 06:50 12 98 10.45 11.7 13 24 1013.1 7.6 23.7 29.6 48.6 127.9 126.6 436.9
08/05 06:40 12.1 97 10.4 11.6 15 17 1013.1 7.6 23.5 29.5 48.3 127.1 125.7 433.8
08/05 06:30 12.1 98 10.51 11.8 11 19 1013.1 7.2 23.8 29.7 48.8 128.4 127.3 439.4
08/05 06:20 12.2 97 10.47 11.7 13 17 1013.1 6.8 23.7 29.6 48.6 127.8 126.6 436.8
08/05 06:10 12.2 95 10.25 11.4 9 11 1013.1 6.4 23.2 29.2 47.6 125.2 123.4 425.7
08/05 06:00 12.3 94 10.21 11.4 17 30 1013.1 6 23.1 29.1 47.4 124.6 122.7 423.2
08/05 05:50 12.4 90 9.83 10.9 17 24 1013.1 6 22.3 28.4 45.7 120.1 117.1 403.8
08/05 05:40 12.4 89 9.73 10.6 20 22 1013.1 6 22.1 28.2 45.2 118.9 115.7 398.9
08/05 05:30 12.4 90 9.83 10.8 15 30 1013.1 6 22.3 28.4 45.7 120.1 117.1 403.8
08/05 05:20 12.5 89 9.79 10.7 13 20 1013.1 6 22.2 28.3 45.4 119.5 116.4 401.3
08/05 05:10 12.4 89 9.73 10.6 15 19 1013.1 6 22.1 28.2 45.2 118.9 115.7 398.9
08/05 05:00 12.4 89 9.73 10.6 15 26 1013.1 6 22.1 28.2 45.2 118.9 115.7 398.9
08/05 04:50 12.5 88 9.68 10.5 13 19 1013.1 6 22.0 28.1 45.0 118.2 114.9 395.9
08/05 04:40 12.5 86 9.46 10.2 20 26 1013.1 6 21.5 27.7 44.0 115.7 111.8 385.2
08/05 04:30 12.4 87 9.51 10.3 15 24 1013.1 6 21.6 27.8 44.3 116.4 112.6 388.1
08/05 04:20 12.5 87 9.57 10.4 15 20 1013.1 6 21.7 27.9 44.5 117.0 113.3 390.6
08/05 04:10 12.4 86 9.4 10.1 13 17 1013.1 6 21.4 27.6 43.8 115.2 111.1 382.8
08/05 04:00 12.4 86 9.4 10.1 11 19 1013.1 6 21.4 27.6 43.8 115.2 111.1 382.8
08/05 03:50 12.5 85 9.35 10 15 19 1013.1 6 21.3 27.5 43.6 114.5 110.3 379.9
08/05 03:40 12.4 85 9.29 9.9 20 30 1013.1 6 21.1 27.5 43.4 113.9 109.6 377.5
08/05 03:30 12.4 85 9.29 10 15 30 1013.1 5.8 21.1 27.5 43.4 113.9 109.6 377.5
08/05 03:20 12.4 85 9.29 9.9 19 20 1013.1 5.8 21.1 27.5 43.4 113.9 109.6 377.5
08/05 03:10 12.4 83 9.07 9.7 17 19 1013.1 5.8 20.7 27.1 42.4 111.5 106.6 366.9
08/05 03:00 12.3 84 9.12 9.7 15 32 1013.1 5.8 20.8 27.2 42.7 112.2 107.4 369.8
08/05 02:50 12.3 83 9.01 9.6 11 15 1013.1 5.8 20.5 27.0 42.2 111.0 105.9 364.5
08/05 02:40 12.3 83 9.01 9.6 19 22 1013.1 5.8 20.5 27.0 42.2 111.0 105.9 364.5
08/05 02:30 12.2 84 9.07 9.6 17 28 1013.1 5.8 20.7 27.1 42.5 111.8 106.8 367.8
08/05 02:20 12.1 85 9.12 9.6 15 22 1013.1 5.8 20.8 27.3 42.8 112.5 107.7 370.7
08/05 02:10 12 86 9.17 9.7 15 19 1013.1 5.8 20.9 27.4 43.1 113.2 108.5 373.6
08/05 02:00 12.1 85 9.12 9.7 19 32 1013.1 5.8 20.8 27.3 42.8 112.5 107.7 370.7
08/05 01:50 12.1 85 9.12 9.6 13 19 1013.1 5.8 20.8 27.3 42.8 112.5 107.7 370.7
08/05 01:40 12.1 85 9.12 9.6 17 20 1013.1 5.8 20.8 27.3 42.8 112.5 107.7 370.7
08/05 01:30 11.9 85 9 9.5 15 22 1013.1 5.8 20.5 27.1 42.4 111.4 106.3 365.9
08/05 01:20 11.8 85 8.95 9.3 22 28 1013.1 5.8 20.4 27.1 42.3 111.0 105.7 363.9
08/05 01:10 11.6 86 8.94 9.3 9 13 1013.1 5.8 20.4 27.1 42.3 111.2 105.9 364.4
08/05 01:00 11.5 86 8.88 9.2 11 19 1013.1 5.8 20.3 27.0 42.1 110.7 105.2 362.0
08/05 00:50 11.4 86 8.83 9.1 7 9 1013.1 5.8 20.2 27.0 42.0 110.2 104.6 360.0
08/05 00:40 11.3 86 8.77 9 7 9 1013.1 5.8 20.1 26.9 41.8 109.7 104.0 357.6
08/05 00:30 11.1 86 8.66 8.8 6 17 1013.1 5.8 19.9 26.8 41.4 108.8 102.7 353.2
08/05 00:20 10.9 87 8.66 8.8 6 7 1013.1 5.8 19.9 26.9 41.5 109.0 103.0 354.1
08/05 00:10 10.8 87 8.6 8.7 7 11 1013.1 5.8 19.7 26.8 41.3 108.5 102.3 351.7
08/05 00:00 10.6 88 8.59 8.7 4 7 1013.1 5.8 19.7 26.8 41.4 108.7 102.4 352.1
07/05 23:50 10.5 88 8.54 8.6 7 9 1013.1 5.8 19.6 26.8 41.2 108.3 101.9 350.2
07/05 23:40 10.3 89 8.53 8.5 4 4 1013.1 5.8 19.6 26.8 41.3 108.4 102.0 350.6
07/05 23:30 10.3 88 8.43 8.4 4 7 1013.1 5.8 19.4 26.6 40.9 107.3 100.6 345.7
07/05 23:20 10.3 89 8.53 8.5 6 7 1013.1 5.8 19.6 26.8 41.3 108.4 102.0 350.6
07/05 23:10 10.2 89 8.47 8.4 4 7 1013.1 5.8 19.5 26.7 41.1 107.9 101.3 348.1
07/05 23:00 10.2 88 8.38 8.3 6 11 1013.1 5.8 19.3 26.6 40.7 106.9 100.0 343.8
07/05 22:50 10.3 87 8.33 8.2 9 13 1013.1 5.8 19.2 26.5 40.5 106.2 99.2 340.9
07/05 22:40 10.4 86 8.29 8.1 7 17 1013.1 5.6 19.1 26.4 40.2 105.6 98.6 338.6
07/05 22:30 10.4 86 8.29 8.2 7 20 1013.1 5.6 19.1 26.4 40.2 105.6 98.6 338.6
07/05 22:20 10.4 83 8 7.6 15 17 1013.1 5.6 18.5 25.9 39.0 102.4 94.6 324.8
07/05 22:10 10.3 85 8.14 7.9 11 17 1013.1 5.6 18.8 26.2 39.7 104.1 96.6 331.8
07/05 22:00 10.1 87 8.23 8 9 13 1013.1 5.6 19.0 26.4 40.1 105.3 98.1 337.0
07/05 21:50 10 88 8.27 8.1 2 4 1013.1 5.6 19.1 26.5 40.4 105.9 98.8 339.4
07/05 21:40 9.8 88 8.17 8 6 6 1013.1 5.6 18.9 26.4 40.0 105.1 97.7 335.4
07/05 21:30 9.6 91 8.34 8.2 6 9 1013.1 5.6 19.2 26.7 40.9 107.3 100.3 344.5
07/05 21:20 9.5 91 8.29 8.1 6 7 1013.1 5.6 19.1 26.7 40.7 106.8 99.7 342.5
07/05 21:10 9.4 92 8.32 8.1 6 7 1013.1 5.6 19.2 26.7 40.9 107.3 100.3 344.4
07/05 21:00 9.4 93 8.41 8.3 6 9 1013.1 5.6 19.4 26.9 41.3 108.3 101.5 348.8
07/05 20:50 9.4 93 8.41 8.3 6 6 1013.1 5.6 19.4 26.9 41.3 108.3 101.5 348.8
07/05 20:40 9.4 92 8.32 8.1 11 15 1013.1 5.6 19.2 26.7 40.9 107.3 100.3 344.4
07/05 20:30 9.6 90 8.25 8 13 20 1013.1 5.6 19.0 26.6 40.5 106.3 99.0 340.1
07/05 20:20 10 85 7.99 7.6 13 19 1013.1 5.4 18.5 26.0 39.2 102.8 95.0 326.0
07/05 20:10 10.4 80 7.71 7.1 11 17 1013.1 5.4 17.8 25.4 37.9 99.2 90.7 311.1
07/05 20:00 10.3 81 7.76 7.2 20 35 1013.1 5.4 18.0 25.5 38.1 99.9 91.5 313.8

Last Refresh: 08-May-2026 12:08:50

Bureau of Meteorology